Kinrikimaru No.5 — JL6558 — position and weather

sailwx.info

Track history (hours):
 
Tides and Currents Weather Stations Pressure Air Temp Water Temp Dewpoint Dewpoint Depression Visibility Wind Speed Wind Dir Waves Ship Positions

Kinrikimaru No.5

Last reported at 2018-Apr-22 10:36 UTC. Time now 2018-Apr-25 01:02 UTC.
Position N 41°18' E 140°19'.

Length 75 m; draft 3.8 m.

Type: Cargo ship. MMSI: 431501278.

Date/timePositionNaut miles runAvg speedWind from/ knotsBaromVisibWave heightAir tempDewpointWater temp
2018-Apr-22 10:36N 41°18' E 140°19'1 6.7
2018-Apr-22 10:28N 41°18' E 140°20'3 6.4
2018-Apr-22 09:58N 41°20' E 140°23'3 7.0
2018-Apr-22 09:30N 41°22' E 140°27'3 6.9
2018-Apr-22 09:00N 41°23' E 140°31'4 7.7
2018-Apr-22 08:30N 41°25' E 140°36'510.1
2018-Apr-22 08:00N 41°27' E 140°42'510.6
2018-Apr-22 07:30N 41°30' E 140°48'510.0
2018-Apr-22 07:00N 41°34' E 140°52'4 7.5
2018-Apr-22 06:30N 41°35' E 140°57'5 9.7
2018-Apr-22 06:00N 41°33' E 141°03'5 9.6
2018-Apr-22 05:30N 41°32' E 141°09'5 9.7
2018-Apr-22 05:00N 41°31' E 141°15'611.1
2018-Apr-22 04:30N 41°29' E 141°22'611.7
2018-Apr-22 03:59N 41°27' E 141°30'39510.7
2018-Apr-20 15:07N 34°58' E 140°07'311.7
2018-Apr-20 14:50N 34°56' E 140°03'411.4
2018-Apr-20 14:30N 34°54' E 139°59'910.4
2018-Apr-20 13:36N 34°52' E 139°48'112.0
2018-Apr-20 13:30N 34°53' E 139°47'612.0
2018-Apr-20 13:00N 34°58' E 139°43'611.2
2018-Apr-20 12:30N 35°04' E 139°44'611.8
2018-Apr-20 12:00N 35°10' E 139°46'611.8
2018-Apr-20 11:30N 35°15' E 139°46'611.5
2018-Apr-20 11:00N 35°20' E 139°43'510.6
2018-Apr-20 10:30N 35°25' E 139°44'511.0
2018-Apr-20 10:00N 35°29' E 139°50'510.2
2018-Apr-20 09:30N 35°34' E 139°51'5 9.6
2018-Apr-20 09:00N 35°38' E 139°48'0 0.6
2018-Apr-20 08:30N 35°38' E 139°49'0 0.0
2018-Apr-20 08:00N 35°38' E 139°49'0 0.0
2018-Apr-20 07:29N 35°38' E 139°49'0 0.0
2018-Apr-20 07:00N 35°38' E 139°49'0 0.0
2018-Apr-20 06:30N 35°38' E 139°49'0 0.0
2018-Apr-20 06:00N 35°38' E 139°49'1 2.4
2018-Apr-20 05:30N 35°38' E 139°48'0 0.0
2018-Apr-19 22:32N 35°38' E 139°48'0 0.0
2018-Apr-19 22:29N 35°38' E 139°48'0 0.0
2018-Apr-19 21:59N 35°38' E 139°48'2 3.9
2018-Apr-19 21:30N 35°37' E 139°50'5 9.9
2018-Apr-19 21:01N 35°33' E 139°53'1 1.7
2018-Apr-19 20:27N 35°32' E 139°52'4 8.5
2018-Apr-19 20:00N 35°28' E 139°51'511.0
2018-Apr-19 19:30N 35°24' E 139°46'611.2
2018-Apr-19 19:00N 35°19' E 139°44'510.5
2018-Apr-19 18:30N 35°14' E 139°47'510.7
2018-Apr-19 18:00N 35°09' E 139°46'510.0
2018-Apr-19 17:30N 35°05' E 139°43'510.6
2018-Apr-19 17:00N 35°01' E 139°38'510.9
2018-Apr-19 16:30N 34°58' E 139°33'1511.7
2018-Apr-19 15:13N 34°49' E 139°18'411.0
2018-Apr-19 14:54N 34°47' E 139°15'411.3
2018-Apr-19 14:30N 34°44' E 139°10'611.4
2018-Apr-19 13:56N 34°40' E 139°04'510.7
2018-Apr-19 13:30N 34°38' E 138°59'1 1.2
2018-Apr-19 12:59N 34°37' E 138°60'910.1
2018-Apr-19 12:06N 34°34' E 138°50'1 8.9
2018-Apr-19 12:00N 34°33' E 138°50'4 8.9
2018-Apr-19 11:30N 34°33' E 138°45'1111.2
2018-Apr-19 10:33N 34°32' E 138°32'111.3
2018-Apr-19 10:26N 34°32' E 138°30'611.4
2018-Apr-19 09:53N 34°31' E 138°23'411.0
2018-Apr-19 09:30N 34°31' E 138°18'1111.4
2018-Apr-19 08:32N 34°30' E 138°05'154 9.2
2018-Apr-18 15:49N 33°48' E 135°05'310.9
2018-Apr-18 15:30N 33°51' E 135°03'611.6
2018-Apr-18 15:00N 33°56' E 135°00'611.0
2018-Apr-18 14:30N 34°02' E 134°60'510.6
2018-Apr-18 14:01N 34°07' E 134°59'510.6
2018-Apr-18 13:30N 34°12' E 134°59'5 9.6
2018-Apr-18 13:00N 34°17' E 134°59'4 8.7
2018-Apr-18 12:30N 34°21' E 134°60'5 9.9
2018-Apr-18 12:00N 34°26' E 135°01'5 9.4
2018-Apr-18 11:31N 34°31' E 135°02'4 8.7
2018-Apr-18 11:01N 34°35' E 135°03'3 6.8
2018-Apr-18 10:30N 34°37' E 134°60'5 9.2
2018-Apr-18 10:00N 34°37' E 134°54'510.2
2018-Apr-18 09:30N 34°40' E 134°49'611.1
2018-Apr-18 09:00N 34°43' E 134°43'5 9.2
2018-Apr-18 08:29N 34°47' E 134°39'1 0.2
2018-Apr-18 05:56N 34°47' E 134°40'0 0.0
2018-Apr-17 22:35N 34°47' E 134°40'0 0.2
2018-Apr-17 22:31N 34°47' E 134°40'2 4.4
2018-Apr-17 22:00N 34°45' E 134°39'0 0.0
2018-Apr-17 21:24N 34°45' E 134°39'0 0.0
2018-Apr-17 21:00N 34°45' E 134°39'0 0.0
2018-Apr-17 18:06N 34°45' E 134°39'0 0.0
2018-Apr-17 18:00N 34°45' E 134°39'0 0.0
2018-Apr-17 17:12N 34°45' E 134°39'0 0.0
2018-Apr-17 16:54N 34°45' E 134°39'0 0.0
2018-Apr-17 16:30N 34°45' E 134°39'0 0.0
2018-Apr-17 16:00N 34°45' E 134°39'0 0.0
2018-Apr-17 15:30N 34°45' E 134°39'0 0.0
2018-Apr-17 15:00N 34°45' E 134°39'0 0.1
2018-Apr-17 14:24N 34°45' E 134°39'0 0.1
2018-Apr-17 14:00N 34°45' E 134°39'0 0.0
2018-Apr-17 13:30N 34°45' E 134°39'0 0.1
2018-Apr-17 13:00N 34°45' E 134°39'0 0.1
2018-Apr-17 11:48N 34°45' E 134°39'0 0.0
2018-Apr-17 09:49N 34°45' E 134°39'1 4.7
2018-Apr-17 09:30N 34°44' E 134°38'612.0
2018-Apr-17 09:00N 34°42' E 134°31'1612.2
2018-Apr-17 07:42N 34°35' E 134°14'613.1
2018-Apr-17 07:14N 34°32' E 134°07'14 0.7
2018-Apr-16 09:58N 34°25' E 134°21'511.5
2018-Apr-16 09:30N 34°27' E 134°27'611.2
2018-Apr-16 09:00N 34°29' E 134°33'511.1
2018-Apr-16 08:30N 34°31' E 134°40'610.8
2018-Apr-16 07:59N 34°33' E 134°46'510.4
2018-Apr-16 07:30N 34°35' E 134°51'5 9.5
2018-Apr-16 07:00N 34°37' E 134°57'4 7.8
2018-Apr-16 06:30N 34°37' E 135°02'3 6.1
2018-Apr-16 06:00N 34°35' E 135°05'4 8.3
2018-Apr-16 05:30N 34°31' E 135°04'510.3
2018-Apr-16 05:00N 34°26' E 135°03'510.1
2018-Apr-16 04:31N 34°21' E 135°01'5 9.2
2018-Apr-16 04:01N 34°17' E 134°59'5 9.1
2018-Apr-16 03:30N 34°12' E 134°59'510.3
2018-Apr-16 03:00N 34°07' E 135°00'510.5
2018-Apr-16 02:30N 34°02' E 135°01'510.1
2018-Apr-16 01:59N 33°57' E 135°01'5 9.6
2018-Apr-16 01:30N 33°52' E 135°02'106 7.9
2018-Apr-15 12:03N 34°33' E 137°00'112.8
2018-Apr-15 11:59N 34°34' E 136°60'9 8.6
2018-Apr-15 10:59N 34°41' E 137°06'0 0.7
2018-Apr-15 10:22N 34°41' E 137°06'0 0.0
2018-Apr-15 09:54N 34°41' E 137°06'0 0.0
2018-Apr-15 05:06N 34°41' E 137°06'0 0.1
2018-Apr-15 04:54N 34°41' E 137°06'0 0.0
2018-Apr-15 04:30N 34°41' E 137°06'0 0.0
2018-Apr-15 04:00N 34°41' E 137°06'0 0.0
2018-Apr-15 01:36N 34°41' E 137°06'0 0.0
2018-Apr-15 01:18N 34°41' E 137°06'0 0.0
2018-Apr-15 00:48N 34°41' E 137°06'0 0.0
2018-Apr-14 14:36N 34°41' E 137°06'0 0.5
2018-Apr-14 14:30N 34°41' E 137°06'0 0.0
2018-Apr-14 14:00N 34°41' E 137°06'0 0.0
2018-Apr-14 13:06N 34°41' E 137°06'0 0.0
2018-Apr-14 12:42N 34°41' E 137°06'0 0.0
2018-Apr-14 12:24N 34°41' E 137°06'0 0.0
2018-Apr-14 11:54N 34°41' E 137°06'0 0.0
2018-Apr-14 11:30N 34°41' E 137°06'0 0.0
2018-Apr-14 11:00N 34°41' E 137°06'0 0.0
2018-Apr-14 10:30N 34°41' E 137°06'0 0.0
2018-Apr-14 09:42N 34°41' E 137°06'0 0.0
2018-Apr-14 09:30N 34°41' E 137°06'0 0.0
2018-Apr-14 08:18N 34°41' E 137°06'0 0.1
2018-Apr-14 07:40N 34°41' E 137°06'3 9.7
2018-Apr-14 07:19N 34°40' E 137°02'411.3
2018-Apr-14 07:00N 34°37' E 136°59'63 9.9
2018-Apr-14 00:35N 34°33' E 138°16'2910.5
2018-Apr-13 21:52N 34°35' E 138°51'410.4
2018-Apr-13 21:29N 34°36' E 138°55'710.9
2018-Apr-13 20:53N 34°40' E 139°02'411.2
2018-Apr-13 20:30N 34°43' E 139°05'611.3
2018-Apr-13 19:57N 34°47' E 139°10'1710.5
2018-Apr-13 18:22N 34°51' E 139°30'2410.1
2018-Apr-13 15:59N 34°53' E 139°59'7 8.7
2018-Apr-13 15:11N 34°57' E 140°06'  
Track history (hours):
 
Tides and Currents Weather Stations Pressure Air Temp Water Temp Dewpoint Dewpoint Depression Visibility Wind Speed Wind Dir Waves Ship Positions

Kinrikimaru No.5

Last reported at 2018-Apr-22 10:36 UTC. Time now 2018-Apr-25 01:02 UTC.
Position N 41°18' E 140°19'.

Length 75 m; draft 3.8 m.

Type: Cargo ship. MMSI: 431501278.

Date/timePositionNaut miles runAvg speedWind from/ knotsBaromVisibWave heightAir tempDewpointWater temp
2018-Apr-22 10:36N 41°18' E 140°19'1 6.7
2018-Apr-22 10:28N 41°18' E 140°20'3 6.4
2018-Apr-22 09:58N 41°20' E 140°23'3 7.0
2018-Apr-22 09:30N 41°22' E 140°27'3 6.9
2018-Apr-22 09:00N 41°23' E 140°31'4 7.7
2018-Apr-22 08:30N 41°25' E 140°36'510.1
2018-Apr-22 08:00N 41°27' E 140°42'510.6
2018-Apr-22 07:30N 41°30' E 140°48'510.0
2018-Apr-22 07:00N 41°34' E 140°52'4 7.5
2018-Apr-22 06:30N 41°35' E 140°57'5 9.7
2018-Apr-22 06:00N 41°33' E 141°03'5 9.6
2018-Apr-22 05:30N 41°32' E 141°09'5 9.7
2018-Apr-22 05:00N 41°31' E 141°15'611.1
2018-Apr-22 04:30N 41°29' E 141°22'611.7
2018-Apr-22 03:59N 41°27' E 141°30'39510.7
2018-Apr-20 15:07N 34°58' E 140°07'311.7
2018-Apr-20 14:50N 34°56' E 140°03'411.4
2018-Apr-20 14:30N 34°54' E 139°59'910.4
2018-Apr-20 13:36N 34°52' E 139°48'112.0
2018-Apr-20 13:30N 34°53' E 139°47'612.0
2018-Apr-20 13:00N 34°58' E 139°43'611.2
2018-Apr-20 12:30N 35°04' E 139°44'611.8
2018-Apr-20 12:00N 35°10' E 139°46'611.8
2018-Apr-20 11:30N 35°15' E 139°46'611.5
2018-Apr-20 11:00N 35°20' E 139°43'510.6
2018-Apr-20 10:30N 35°25' E 139°44'511.0
2018-Apr-20 10:00N 35°29' E 139°50'510.2
2018-Apr-20 09:30N 35°34' E 139°51'5 9.6
2018-Apr-20 09:00N 35°38' E 139°48'0 0.6
2018-Apr-20 08:30N 35°38' E 139°49'0 0.0
2018-Apr-20 08:00N 35°38' E 139°49'0 0.0
2018-Apr-20 07:29N 35°38' E 139°49'0 0.0
2018-Apr-20 07:00N 35°38' E 139°49'0 0.0
2018-Apr-20 06:30N 35°38' E 139°49'0 0.0
2018-Apr-20 06:00N 35°38' E 139°49'1 2.4
2018-Apr-20 05:30N 35°38' E 139°48'0 0.0
2018-Apr-19 22:32N 35°38' E 139°48'0 0.0
2018-Apr-19 22:29N 35°38' E 139°48'0 0.0
2018-Apr-19 21:59N 35°38' E 139°48'2 3.9
2018-Apr-19 21:30N 35°37' E 139°50'5 9.9
2018-Apr-19 21:01N 35°33' E 139°53'1 1.7
2018-Apr-19 20:27N 35°32' E 139°52'4 8.5
2018-Apr-19 20:00N 35°28' E 139°51'511.0
2018-Apr-19 19:30N 35°24' E 139°46'611.2
2018-Apr-19 19:00N 35°19' E 139°44'510.5
2018-Apr-19 18:30N 35°14' E 139°47'510.7
2018-Apr-19 18:00N 35°09' E 139°46'510.0
2018-Apr-19 17:30N 35°05' E 139°43'510.6
2018-Apr-19 17:00N 35°01' E 139°38'510.9
2018-Apr-19 16:30N 34°58' E 139°33'1511.7
2018-Apr-19 15:13N 34°49' E 139°18'411.0
2018-Apr-19 14:54N 34°47' E 139°15'411.3
2018-Apr-19 14:30N 34°44' E 139°10'611.4
2018-Apr-19 13:56N 34°40' E 139°04'510.7
2018-Apr-19 13:30N 34°38' E 138°59'1 1.2
2018-Apr-19 12:59N 34°37' E 138°60'910.1
2018-Apr-19 12:06N 34°34' E 138°50'1 8.9
2018-Apr-19 12:00N 34°33' E 138°50'4 8.9
2018-Apr-19 11:30N 34°33' E 138°45'1111.2
2018-Apr-19 10:33N 34°32' E 138°32'111.3
2018-Apr-19 10:26N 34°32' E 138°30'611.4
2018-Apr-19 09:53N 34°31' E 138°23'411.0
2018-Apr-19 09:30N 34°31' E 138°18'1111.4
2018-Apr-19 08:32N 34°30' E 138°05'154 9.2
2018-Apr-18 15:49N 33°48' E 135°05'310.9
2018-Apr-18 15:30N 33°51' E 135°03'611.6
2018-Apr-18 15:00N 33°56' E 135°00'611.0
2018-Apr-18 14:30N 34°02' E 134°60'510.6
2018-Apr-18 14:01N 34°07' E 134°59'510.6
2018-Apr-18 13:30N 34°12' E 134°59'5 9.6
2018-Apr-18 13:00N 34°17' E 134°59'4 8.7
2018-Apr-18 12:30N 34°21' E 134°60'5 9.9
2018-Apr-18 12:00N 34°26' E 135°01'5 9.4
2018-Apr-18 11:31N 34°31' E 135°02'4 8.7
2018-Apr-18 11:01N 34°35' E 135°03'3 6.8
2018-Apr-18 10:30N 34°37' E 134°60'5 9.2
2018-Apr-18 10:00N 34°37' E 134°54'510.2
2018-Apr-18 09:30N 34°40' E 134°49'611.1
2018-Apr-18 09:00N 34°43' E 134°43'5 9.2
2018-Apr-18 08:29N 34°47' E 134°39'1 0.2
2018-Apr-18 05:56N 34°47' E 134°40'0 0.0
2018-Apr-17 22:35N 34°47' E 134°40'0 0.2
2018-Apr-17 22:31N 34°47' E 134°40'2 4.4
2018-Apr-17 22:00N 34°45' E 134°39'0 0.0
2018-Apr-17 21:24N 34°45' E 134°39'0 0.0
2018-Apr-17 21:00N 34°45' E 134°39'0 0.0
2018-Apr-17 18:06N 34°45' E 134°39'0 0.0
2018-Apr-17 18:00N 34°45' E 134°39'0 0.0
2018-Apr-17 17:12N 34°45' E 134°39'0 0.0
2018-Apr-17 16:54N 34°45' E 134°39'0 0.0
2018-Apr-17 16:30N 34°45' E 134°39'0 0.0
2018-Apr-17 16:00N 34°45' E 134°39'0 0.0
2018-Apr-17 15:30N 34°45' E 134°39'0 0.0
2018-Apr-17 15:00N 34°45' E 134°39'0 0.1
2018-Apr-17 14:24N 34°45' E 134°39'0 0.1
2018-Apr-17 14:00N 34°45' E 134°39'0 0.0
2018-Apr-17 13:30N 34°45' E 134°39'0 0.1
2018-Apr-17 13:00N 34°45' E 134°39'0 0.1
2018-Apr-17 11:48N 34°45' E 134°39'0 0.0
2018-Apr-17 09:49N 34°45' E 134°39'1 4.7
2018-Apr-17 09:30N 34°44' E 134°38'612.0
2018-Apr-17 09:00N 34°42' E 134°31'1612.2
2018-Apr-17 07:42N 34°35' E 134°14'613.1
2018-Apr-17 07:14N 34°32' E 134°07'14 0.7
2018-Apr-16 09:58N 34°25' E 134°21'511.5
2018-Apr-16 09:30N 34°27' E 134°27'611.2
2018-Apr-16 09:00N 34°29' E 134°33'511.1
2018-Apr-16 08:30N 34°31' E 134°40'610.8
2018-Apr-16 07:59N 34°33' E 134°46'510.4
2018-Apr-16 07:30N 34°35' E 134°51'5 9.5
2018-Apr-16 07:00N 34°37' E 134°57'4 7.8
2018-Apr-16 06:30N 34°37' E 135°02'3 6.1
2018-Apr-16 06:00N 34°35' E 135°05'4 8.3
2018-Apr-16 05:30N 34°31' E 135°04'510.3
2018-Apr-16 05:00N 34°26' E 135°03'510.1
2018-Apr-16 04:31N 34°21' E 135°01'5 9.2
2018-Apr-16 04:01N 34°17' E 134°59'5 9.1
2018-Apr-16 03:30N 34°12' E 134°59'510.3
2018-Apr-16 03:00N 34°07' E 135°00'510.5
2018-Apr-16 02:30N 34°02' E 135°01'510.1
2018-Apr-16 01:59N 33°57' E 135°01'5 9.6
2018-Apr-16 01:30N 33°52' E 135°02'106 7.9
2018-Apr-15 12:03N 34°33' E 137°00'112.8
2018-Apr-15 11:59N 34°34' E 136°60'9 8.6
2018-Apr-15 10:59N 34°41' E 137°06'0 0.7
2018-Apr-15 10:22N 34°41' E 137°06'0 0.0
2018-Apr-15 09:54N 34°41' E 137°06'0 0.0
2018-Apr-15 05:06N 34°41' E 137°06'0 0.1
2018-Apr-15 04:54N 34°41' E 137°06'0 0.0
2018-Apr-15 04:30N 34°41' E 137°06'0 0.0
2018-Apr-15 04:00N 34°41' E 137°06'0 0.0
2018-Apr-15 01:36N 34°41' E 137°06'0 0.0
2018-Apr-15 01:18N 34°41' E 137°06'0 0.0
2018-Apr-15 00:48N 34°41' E 137°06'0 0.0
2018-Apr-14 14:36N 34°41' E 137°06'0 0.5
2018-Apr-14 14:30N 34°41' E 137°06'0 0.0
2018-Apr-14 14:00N 34°41' E 137°06'0 0.0
2018-Apr-14 13:06N 34°41' E 137°06'0 0.0
2018-Apr-14 12:42N 34°41' E 137°06'0 0.0
2018-Apr-14 12:24N 34°41' E 137°06'0 0.0
2018-Apr-14 11:54N 34°41' E 137°06'0 0.0
2018-Apr-14 11:30N 34°41' E 137°06'0 0.0
2018-Apr-14 11:00N 34°41' E 137°06'0 0.0
2018-Apr-14 10:30N 34°41' E 137°06'0 0.0
2018-Apr-14 09:42N 34°41' E 137°06'0 0.0
2018-Apr-14 09:30N 34°41' E 137°06'0 0.0
2018-Apr-14 08:18N 34°41' E 137°06'0 0.1
2018-Apr-14 07:40N 34°41' E 137°06'3 9.7
2018-Apr-14 07:19N 34°40' E 137°02'411.3
2018-Apr-14 07:00N 34°37' E 136°59'63 9.9
2018-Apr-14 00:35N 34°33' E 138°16'2910.5
2018-Apr-13 21:52N 34°35' E 138°51'410.4
2018-Apr-13 21:29N 34°36' E 138°55'710.9
2018-Apr-13 20:53N 34°40' E 139°02'411.2
2018-Apr-13 20:30N 34°43' E 139°05'611.3
2018-Apr-13 19:57N 34°47' E 139°10'1710.5
2018-Apr-13 18:22N 34°51' E 139°30'2410.1
2018-Apr-13 15:59N 34°53' E 139°59'7 8.7
2018-Apr-13 15:11N 34°57' E 140°06'  

Dump ship's entire track history